Time;durP1;ratioP1;P1;durP2;ratioP2;P2;SDS_P1;SDS_P2;PMS_P1;PMS_P2;Temp;Humidity;BMP_temperature;BMP_pressure;BME280_temperature;BME280_humidity;BME280_pressure;Samples;Min_cycle;Max_cycle;Signal;HPM_P1;HPM_P2
2023/04/09 00:01:46;;;;;;;120.63;78.27;;;7.80;76.00;;;;;;5097594;28;20051;-76
2023/04/09 00:04:12;;;;;;;128.83;80.17;;;7.80;76.00;;;;;;5075600;28;20063;-76
2023/04/09 00:06:37;;;;;;;126.47;78.60;;;7.70;76.10;;;;;;5077157;28;20070;-75
2023/04/09 00:09:03;;;;;;;130.33;79.37;;;7.70;76.00;;;;;;5088554;28;20043;-76
2023/04/09 00:11:29;;;;;;;133.83;81.27;;;7.70;76.10;;;;;;5107536;28;20114;-76
2023/04/09 00:13:56;;;;;;;134.43;82.17;;;7.60;76.20;;;;;;5090172;28;20044;-76
2023/04/09 00:16:21;;;;;;;140.73;84.43;;;7.60;76.20;;;;;;5096551;28;20043;-75
2023/04/09 00:18:47;;;;;;;146.43;86.37;;;7.60;76.30;;;;;;5111049;28;20048;-76
2023/04/09 00:21:14;;;;;;;151.13;88.30;;;7.60;76.30;;;;;;5071184;28;20058;-76
2023/04/09 00:23:41;;;;;;;153.43;88.57;;;7.60;76.20;;;;;;5062236;28;20062;-76
2023/04/09 00:26:06;;;;;;;146.47;88.70;;;7.50;76.40;;;;;;5083594;28;20054;-75
2023/04/09 00:28:32;;;;;;;156.00;88.40;;;7.50;76.30;;;;;;5070826;28;20452;-76
2023/04/09 00:30:58;;;;;;;147.73;86.63;;;7.50;76.40;;;;;;5089510;28;20044;-76
2023/04/09 00:33:24;;;;;;;148.93;88.13;;;7.50;76.40;;;;;;5103338;28;20075;-76
2023/04/09 00:35:50;;;;;;;144.97;85.47;;;7.50;76.30;;;;;;5070587;28;20486;-76
2023/04/09 00:38:16;;;;;;;147.37;84.63;;;7.40;76.50;;;;;;5086994;28;20042;-76
2023/04/09 00:40:42;;;;;;;146.27;81.60;;;7.40;76.50;;;;;;5074880;28;20120;-76
2023/04/09 00:43:07;;;;;;;135.83;78.57;;;7.40;76.50;;;;;;5089844;28;20043;-76
2023/04/09 00:45:33;;;;;;;125.70;76.87;;;7.40;76.50;;;;;;5090858;28;20096;-76
2023/04/09 00:47:59;;;;;;;125.47;73.73;;;7.40;76.40;;;;;;5092413;28;20089;-76
2023/04/09 00:50:25;;;;;;;124.07;71.40;;;7.40;76.30;;;;;;5057060;28;20126;-76
2023/04/09 00:52:51;;;;;;;132.47;73.93;;;7.40;76.40;;;;;;5088353;28;20123;-76
2023/04/09 00:55:17;;;;;;;121.57;72.07;;;7.30;76.50;;;;;;5089226;28;20131;-76
2023/04/09 00:57:43;;;;;;;123.23;71.00;;;7.20;76.40;;;;;;5052043;28;20079;-76
2023/04/09 01:00:10;;;;;;;124.97;69.77;;;7.20;76.40;;;;;;5086033;28;20441;-76
2023/04/09 01:02:36;;;;;;;122.57;69.00;;;7.20;76.40;;;;;;5077568;28;20619;-76
2023/04/09 01:05:02;;;;;;;122.87;70.67;;;7.20;76.50;;;;;;5107281;28;20126;-76
2023/04/09 01:07:52;;;;;;;131.50;72.33;;;7.20;76.40;;;;;;5072445;28;20636;-76
2023/04/09 01:10:30;;;;;;;118.80;66.43;;;7.20;76.40;;;;;;5088484;28;20197;-76
2023/04/09 01:13:08;;;;;;;115.60;66.13;;;7.20;76.40;;;;;;5105725;28;20092;-76
2023/04/09 01:15:38;;;;;;;109.83;62.07;;;7.20;76.50;;;;;;5106765;28;20371;-76
2023/04/09 01:18:25;;;;;;;109.70;65.38;;;7.20;76.40;;;;;;5085672;28;20039;-76
2023/04/09 01:21:04;;;;;;;106.03;61.67;;;7.20;76.50;;;;;;5073083;28;20056;-76
2023/04/09 01:24:12;;;;;;;110.17;62.83;;;7.20;76.40;;;;;;5069444;28;20076;-76
2023/04/09 01:26:43;;;;;;;100.90;58.77;;;7.20;76.50;;;;;;5061006;28;20048;-75
2023/04/09 01:29:09;;;;;;;;;;;7.20;76.40;;;;;;5071177;28;20052;-76
2023/04/09 01:31:37;;;;;;;101.37;54.93;;;7.10;76.70;;;;;;5095377;28;19934;-76
2023/04/09 01:34:05;;;;;;;99.90;56.67;;;7.10;76.50;;;;;;5091116;28;20050;-76
2023/04/09 01:36:32;;;;;;;95.87;55.93;;;7.10;76.50;;;;;;5096440;28;20447;-75
2023/04/09 01:39:00;;;;;;;99.80;55.73;;;7.10;76.50;;;;;;5073799;28;20055;-76
2023/04/09 01:41:26;;;;;;;89.03;54.23;;;7.10;76.60;;;;;;5091153;28;20113;-76
2023/04/09 01:43:52;;;;;;;99.57;56.27;;;7.10;76.50;;;;;;5108775;28;20409;-75
2023/04/09 01:46:20;;;;;;;95.63;55.17;;;7.10;76.70;;;;;;5080449;28;20046;-75
2023/04/09 01:48:46;;;;;;;96.90;55.40;;;7.10;76.70;;;;;;5085149;28;20126;-76
2023/04/09 01:51:13;;;;;;;96.20;54.10;;;7.10;76.70;;;;;;5090451;28;20040;-76
2023/04/09 01:53:39;;;;;;;95.53;53.27;;;7.00;76.70;;;;;;5092802;28;20139;-76
2023/04/09 01:56:06;;;;;;;97.50;55.13;;;7.00;76.70;;;;;;5090440;28;20096;-75
2023/04/09 01:58:35;;;;;;;93.33;55.30;;;7.00;76.90;;;;;;5083139;28;20059;-76
2023/04/09 02:01:18;;;;;;;101.77;56.43;;;7.00;76.70;;;;;;5112545;28;20120;-76
2023/04/09 02:03:54;;;;;;;94.73;53.43;;;7.00;76.80;;;;;;5091891;28;20071;-76
2023/04/09 02:06:39;;;;;;;98.93;55.33;;;7.00;76.80;;;;;;5083361;28;20122;-75
2023/04/09 02:09:07;;;;;;;95.43;53.37;;;7.00;76.80;;;;;;5088762;28;20054;-76
2023/04/09 02:11:35;;;;;;;89.00;51.57;;;7.00;76.80;;;;;;5085819;28;20461;-76
2023/04/09 02:14:03;;;;;;;86.23;51.97;;;7.00;76.90;;;;;;5090384;28;20044;-76
2023/04/09 02:16:31;;;;;;;84.00;49.03;;;7.00;76.90;;;;;;5077554;28;20044;-75
2023/04/09 02:19:00;;;;;;;83.80;49.40;;;7.00;76.90;;;;;;5082414;28;20059;-76
2023/04/09 02:21:27;;;;;;;81.50;48.17;;;7.00;76.90;;;;;;5093784;28;20557;-76
2023/04/09 02:23:54;;;;;;;81.63;48.90;;;7.00;76.80;;;;;;5092585;28;20051;-76
2023/04/09 02:26:21;;;;;;;87.67;48.63;;;7.00;76.90;;;;;;5096357;28;20032;-75
2023/04/09 02:28:47;;;;;;;87.03;48.70;;;7.00;76.90;;;;;;5073482;28;20056;-76
2023/04/09 02:31:13;;;;;;;78.47;46.33;;;7.00;77.00;;;;;;5093114;28;20126;-76
2023/04/09 02:33:39;;;;;;;74.83;44.97;;;7.00;76.90;;;;;;5109463;28;20132;-76
2023/04/09 02:36:05;;;;;;;75.93;45.10;;;7.00;76.90;;;;;;5082491;28;20040;-75
2023/04/09 02:38:31;;;;;;;76.00;44.90;;;7.00;76.90;;;;;;5075350;28;20043;-76
2023/04/09 02:40:57;;;;;;;72.73;44.87;;;7.00;77.00;;;;;;5110190;28;20062;-76
2023/04/09 02:43:22;;;;;;;77.10;45.13;;;7.00;77.00;;;;;;5090415;28;20060;-76
2023/04/09 02:45:48;;;;;;;72.90;44.03;;;6.90;77.10;;;;;;5111369;28;20135;-75
2023/04/09 02:48:14;;;;;;;71.13;43.57;;;6.90;77.10;;;;;;5073568;28;20126;-76
2023/04/09 02:50:40;;;;;;;74.77;44.93;;;6.90;77.10;;;;;;5073098;28;20048;-76
2023/04/09 02:53:05;;;;;;;70.77;43.20;;;6.90;77.10;;;;;;5086133;28;20068;-76
2023/04/09 02:55:31;;;;;;;70.70;42.13;;;6.90;77.10;;;;;;5071643;28;20040;-75
2023/04/09 02:57:57;;;;;;;73.73;41.23;;;6.90;76.90;;;;;;5055984;28;20052;-76
2023/04/09 03:00:22;;;;;;;71.80;41.53;;;6.80;76.90;;;;;;5055823;28;20043;-76
2023/04/09 03:02:48;;;;;;;77.97;43.33;;;6.80;77.00;;;;;;5083060;28;20070;-76
2023/04/09 03:05:14;;;;;;;69.80;42.17;;;6.80;77.10;;;;;;5080057;28;20047;-75
2023/04/09 03:07:39;;;;;;;74.60;42.17;;;6.80;77.00;;;;;;5076117;28;20047;-76
2023/04/09 03:10:05;;;;;;;69.03;42.20;;;6.80;77.10;;;;;;5092511;28;20051;-76
2023/04/09 03:12:31;;;;;;;72.63;41.43;;;6.80;77.10;;;;;;5090897;28;20146;-76
2023/04/09 03:14:57;;;;;;;69.13;40.63;;;6.70;77.10;;;;;;5092321;28;20114;-76
2023/04/09 03:17:25;;;;;;;74.87;43.37;;;6.70;77.20;;;;;;5083011;27;20047;-76
2023/04/09 03:19:52;;;;;;;69.07;39.97;;;6.70;77.10;;;;;;5098618;28;20087;-76
2023/04/09 03:22:17;;;;;;;72.43;41.47;;;6.70;77.10;;;;;;5091629;28;20086;-76
2023/04/09 03:24:43;;;;;;;71.73;40.87;;;6.70;77.10;;;;;;5092433;28;20082;-76
2023/04/09 03:27:09;;;;;;;69.77;40.43;;;6.70;77.20;;;;;;5072836;28;20089;-76
2023/04/09 03:29:35;;;;;;;72.00;40.90;;;6.70;77.30;;;;;;5056480;28;20048;-76
2023/04/09 03:32:00;;;;;;;71.07;41.40;;;6.60;77.30;;;;;;5079911;28;20045;-76
2023/04/09 03:34:26;;;;;;;71.97;41.13;;;6.70;77.20;;;;;;5074310;28;20476;-76
2023/04/09 03:36:52;;;;;;;70.87;40.57;;;6.60;77.20;;;;;;5085201;28;20083;-75
2023/04/09 03:39:17;;;;;;;71.83;41.47;;;6.70;77.30;;;;;;5071995;28;20074;-76
2023/04/09 03:41:43;;;;;;;64.00;39.37;;;6.60;77.30;;;;;;5072478;28;20043;-76
2023/04/09 03:44:09;;;;;;;68.50;41.10;;;6.60;77.30;;;;;;5069882;28;20444;-76
2023/04/09 03:46:35;;;;;;;65.43;40.93;;;6.60;77.30;;;;;;5057538;28;20066;-75
2023/04/09 03:49:01;;;;;;;67.17;39.63;;;6.60;77.30;;;;;;5084984;28;20442;-76
2023/04/09 03:51:27;;;;;;;69.87;40.93;;;6.50;77.30;;;;;;5105674;28;20044;-76
2023/04/09 03:53:52;;;;;;;67.93;39.40;;;6.50;77.20;;;;;;5078446;28;20131;-76
2023/04/09 03:56:18;;;;;;;61.80;38.10;;;6.50;77.20;;;;;;5078679;28;20123;-75
2023/04/09 03:58:44;;;;;;;67.57;39.00;;;6.50;77.20;;;;;;5062352;28;20148;-76
2023/04/09 04:01:09;;;;;;;60.83;37.83;;;6.50;77.30;;;;;;5110428;28;20051;-76
2023/04/09 04:03:35;;;;;;;66.13;38.90;;;6.50;77.20;;;;;;5096373;28;20047;-76
2023/04/09 04:06:02;;;;;;;61.03;37.17;;;6.40;77.20;;;;;;5087644;28;20047;-76
2023/04/09 04:08:28;;;;;;;62.83;37.63;;;6.40;77.30;;;;;;5075469;28;20043;-76
2023/04/09 04:10:54;;;;;;;64.17;38.80;;;6.40;77.20;;;;;;5109470;28;20389;-76
2023/04/09 04:13:19;;;;;;;65.47;39.93;;;6.40;77.30;;;;;;5090719;28;20486;-76
2023/04/09 04:15:45;;;;;;;62.53;38.90;;;6.40;77.30;;;;;;5091967;28;20044;-76
2023/04/09 04:18:11;;;;;;;65.10;38.17;;;6.40;77.30;;;;;;5087626;28;20047;-76
2023/04/09 04:20:37;;;;;;;63.07;37.63;;;6.40;77.40;;;;;;5090612;28;20047;-76
2023/04/09 04:23:03;;;;;;;60.93;37.90;;;6.40;77.30;;;;;;5073222;28;20050;-76
2023/04/09 04:25:30;;;;;;;64.57;38.77;;;6.40;77.40;;;;;;5109669;28;20058;-76
2023/04/09 04:27:56;;;;;;;65.33;38.90;;;6.40;77.40;;;;;;5070975;28;20056;-76
2023/04/09 04:30:22;;;;;;;66.53;39.77;;;6.40;77.50;;;;;;5093799;28;20093;-76
2023/04/09 04:32:48;;;;;;;64.50;39.53;;;6.40;77.50;;;;;;5111281;28;20484;-76
2023/04/09 04:35:14;;;;;;;65.80;38.17;;;6.40;77.60;;;;;;5071169;28;20126;-76
2023/04/09 04:37:39;;;;;;;61.40;36.53;;;6.40;77.50;;;;;;5093447;28;20135;-76
2023/04/09 04:40:06;;;;;;;62.30;37.70;;;6.40;77.50;;;;;;5091946;28;20090;-76
2023/04/09 04:42:33;;;;;;;64.33;38.27;;;6.40;77.60;;;;;;5087815;28;20054;-76
2023/04/09 04:44:59;;;;;;;68.90;39.93;;;6.40;77.50;;;;;;5090442;28;20058;-76
2023/04/09 04:47:24;;;;;;;62.47;37.67;;;6.40;77.60;;;;;;5092293;28;20047;-76
2023/04/09 04:49:50;;;;;;;62.73;38.63;;;6.40;77.60;;;;;;5090636;28;20040;-76
2023/04/09 04:52:16;;;;;;;64.63;38.83;;;6.40;77.60;;;;;;5089451;28;20097;-76
2023/04/09 04:54:42;;;;;;;62.50;38.47;;;6.40;77.60;;;;;;5104406;28;20065;-76
2023/04/09 04:57:07;;;;;;;59.33;37.73;;;6.40;77.70;;;;;;5072615;28;20440;-76
2023/04/09 04:59:37;;;;;;;67.93;39.23;;;6.40;77.60;;;;;;5090027;28;20542;-76
2023/04/09 05:02:03;;;;;;;68.70;41.17;;;6.40;77.70;;;;;;5092902;28;20089;-75
2023/04/09 05:04:29;;;;;;;76.83;42.50;;;6.40;77.70;;;;;;5091258;28;20059;-76
2023/04/09 05:06:55;;;;;;;75.93;43.70;;;6.40;77.90;;;;;;5079433;28;20478;-76
2023/04/09 05:09:20;;;;;;;68.70;41.70;;;6.40;78.00;;;;;;5092828;28;20061;-76
2023/04/09 05:11:46;;;;;;;72.40;43.93;;;6.40;77.90;;;;;;5094408;28;20036;-76
2023/04/09 05:14:12;;;;;;;68.77;42.57;;;6.50;77.80;;;;;;5073802;28;20555;-76
2023/04/09 05:16:37;;;;;;;70.93;41.10;;;6.50;77.70;;;;;;5081844;27;20127;-76
2023/04/09 05:19:03;;;;;;;72.90;41.70;;;6.50;77.80;;;;;;5108067;27;20142;-76
2023/04/09 05:21:30;;;;;;;70.90;43.27;;;6.50;77.80;;;;;;5094714;28;20109;-76
2023/04/09 05:23:56;;;;;;;80.87;45.40;;;6.60;77.90;;;;;;5108540;28;20100;-76
2023/04/09 05:26:22;;;;;;;72.37;44.47;;;6.50;77.90;;;;;;5073500;28;20519;-76
2023/04/09 05:28:47;;;;;;;77.30;43.67;;;6.60;77.90;;;;;;5069654;28;20055;-76
2023/04/09 05:31:14;;;;;;;73.93;43.87;;;6.60;78.00;;;;;;5094452;27;20059;-76
2023/04/09 05:33:40;;;;;;;72.50;42.33;;;6.60;78.10;;;;;;5117762;27;20059;-76
2023/04/09 05:36:07;;;;;;;73.37;44.13;;;6.60;78.00;;;;;;5087832;28;20040;-76
2023/04/09 05:38:33;;;;;;;80.20;45.00;;;6.60;78.00;;;;;;5084218;28;20112;-76
2023/04/09 05:40:59;;;;;;;76.27;43.93;;;6.60;78.00;;;;;;5111893;28;20113;-76
2023/04/09 05:43:25;;;;;;;71.97;44.57;;;6.60;78.00;;;;;;5071985;28;20052;-76
2023/04/09 05:45:50;;;;;;;83.37;44.40;;;6.70;78.10;;;;;;5103043;28;20435;-76
2023/04/09 05:48:17;;;;;;;79.47;44.53;;;6.70;78.10;;;;;;5094430;28;20568;-76
2023/04/09 05:50:51;;;;;;;76.13;45.37;;;6.70;78.10;;;;;;5080695;28;20497;-76
2023/04/09 05:53:18;;;;;;;79.80;46.57;;;6.70;78.00;;;;;;5075555;28;20052;-76
2023/04/09 05:55:45;;;;;;;80.37;46.47;;;6.80;78.10;;;;;;5090550;28;20089;-76
2023/04/09 05:58:12;;;;;;;80.17;47.57;;;6.80;78.10;;;;;;5074230;28;20055;-76
2023/04/09 06:00:37;;;;;;;78.67;47.37;;;6.80;78.20;;;;;;5090558;28;20035;-76
2023/04/09 06:03:03;;;;;;;78.50;48.00;;;6.80;78.20;;;;;;5102136;28;20044;-76
2023/04/09 06:05:30;;;;;;;81.90;48.70;;;6.80;78.10;;;;;;5109155;28;20055;-76
2023/04/09 06:07:56;;;;;;;81.63;47.43;;;6.90;78.10;;;;;;5074332;28;20047;-76
2023/04/09 06:10:22;;;;;;;82.40;49.20;;;6.90;78.00;;;;;;5092123;28;20049;-76
2023/04/09 06:12:48;;;;;;;78.13;47.77;;;7.00;78.00;;;;;;5074355;28;20085;-76
2023/04/09 06:15:14;;;;;;;70.40;43.03;;;7.00;78.00;;;;;;5110079;28;20071;-76
2023/04/09 06:17:40;;;;;;;70.27;43.10;;;7.00;78.00;;;;;;5077528;28;20059;-76
2023/04/09 06:20:06;;;;;;;70.93;44.70;;;7.00;77.80;;;;;;5076650;28;20482;-76
2023/04/09 06:22:31;;;;;;;66.63;41.10;;;7.00;77.90;;;;;;5091644;28;20048;-76
2023/04/09 06:24:57;;;;;;;60.80;37.87;;;7.00;77.70;;;;;;5092180;28;20571;-76
2023/04/09 06:27:23;;;;;;;59.63;39.27;;;7.00;77.20;;;;;;5086558;28;20044;-75
2023/04/09 06:29:49;;;;;;;57.50;39.00;;;7.00;77.00;;;;;;5072193;28;20044;-76
2023/04/09 06:32:15;;;;;;;58.57;38.10;;;7.00;77.10;;;;;;5081435;28;20679;-76
2023/04/09 06:34:41;;;;;;;57.67;37.00;;;7.00;77.00;;;;;;5092207;28;20047;-76
2023/04/09 06:37:06;;;;;;;46.93;32.20;;;7.00;76.70;;;;;;5076524;28;20044;-76
2023/04/09 06:39:32;;;;;;;42.17;29.47;;;7.00;76.10;;;;;;5092272;28;20048;-76
2023/04/09 06:41:58;;;;;;;43.30;30.03;;;7.00;75.30;;;;;;5092554;28;20122;-76
2023/04/09 06:44:23;;;;;;;47.13;31.03;;;7.00;75.30;;;;;;5051273;28;1118944;-76
2023/04/09 06:46:50;;;;;;;45.93;31.27;;;7.00;75.30;;;;;;5059703;28;20499;-75
2023/04/09 06:49:16;;;;;;;48.50;31.57;;;7.00;75.20;;;;;;5089733;28;20051;-76
2023/04/09 06:51:41;;;;;;;49.50;32.97;;;7.00;75.50;;;;;;5110230;28;20054;-76
2023/04/09 06:54:07;;;;;;;48.17;32.40;;;7.00;75.30;;;;;;5110602;28;20055;-76
2023/04/09 06:56:33;;;;;;;47.87;31.47;;;7.00;75.00;;;;;;5078467;28;20051;-75
2023/04/09 06:58:59;;;;;;;44.07;30.33;;;7.00;75.20;;;;;;5086725;28;20078;-76
2023/04/09 07:01:26;;;;;;;45.13;30.33;;;7.00;75.00;;;;;;5091609;28;20486;-76
2023/04/09 07:03:52;;;;;;;42.50;30.37;;;7.00;74.90;;;;;;5075612;28;20521;-76
2023/04/09 07:06:18;;;;;;;45.60;31.83;;;7.00;74.80;;;;;;5076188;28;20075;-76
2023/04/09 07:08:44;;;;;;;48.17;31.83;;;7.00;75.00;;;;;;5084784;28;20051;-76
2023/04/09 07:11:09;;;;;;;48.07;31.87;;;7.00;74.40;;;;;;5070843;28;20102;-76
2023/04/09 07:13:35;;;;;;;52.63;33.33;;;7.10;74.60;;;;;;5071501;28;20054;-76
2023/04/09 07:16:01;;;;;;;50.47;33.33;;;7.20;74.80;;;;;;5071399;28;20046;-76
2023/04/09 07:18:26;;;;;;;51.30;34.37;;;7.20;74.90;;;;;;5068876;28;20411;-76
2023/04/09 07:20:52;;;;;;;52.30;34.97;;;7.20;75.00;;;;;;5089913;28;20395;-76
2023/04/09 07:23:21;;;;;;;50.90;34.17;;;7.30;75.00;;;;;;5070397;28;20127;-76
2023/04/09 07:25:47;;;;;;;51.07;33.87;;;7.40;75.10;;;;;;5063255;28;20079;-76
2023/04/09 07:28:12;;;;;;;49.87;33.90;;;7.40;74.70;;;;;;5085885;28;20090;-76
2023/04/09 07:30:40;;;;;;;52.40;34.73;;;7.40;74.60;;;;;;5104558;28;20385;-76
2023/04/09 07:33:05;;;;;;;49.97;32.73;;;7.40;74.30;;;;;;5094953;28;20044;-76
2023/04/09 07:35:33;;;;;;;53.00;36.47;;;7.40;74.30;;;;;;5082177;28;20050;-75
2023/04/09 07:37:59;;;;;;;51.07;35.10;;;7.40;74.40;;;;;;5065219;28;20050;-76
2023/04/09 07:40:25;;;;;;;53.83;35.70;;;7.40;74.30;;;;;;5098339;28;20036;-76
2023/04/09 07:42:52;;;;;;;56.13;36.87;;;7.50;74.40;;;;;;5084750;28;20047;-76
2023/04/09 07:45:18;;;;;;;56.03;35.30;;;7.50;74.00;;;;;;5073884;28;20066;-76
2023/04/09 07:47:43;;;;;;;54.40;36.90;;;7.50;74.00;;;;;;5092900;28;20047;-76
2023/04/09 07:50:10;;;;;;;56.03;36.63;;;7.50;74.10;;;;;;5109670;28;20032;-76
2023/04/09 07:52:36;;;;;;;52.47;35.87;;;7.50;74.00;;;;;;5079823;28;20044;-76
2023/04/09 07:55:01;;;;;;;54.10;36.67;;;7.50;74.40;;;;;;5109534;28;20385;-76
2023/04/09 07:57:31;;;;;;;57.70;37.87;;;7.60;74.30;;;;;;5043555;28;20401;-76
2023/04/09 07:59:57;;;;;;;57.80;37.77;;;7.60;74.30;;;;;;5090667;28;20048;-76
2023/04/09 08:02:22;;;;;;;57.50;38.03;;;7.80;74.50;;;;;;5088601;28;20145;-75
2023/04/09 08:04:48;;;;;;;54.87;37.17;;;7.80;74.40;;;;;;5106406;28;20059;-76
2023/04/09 08:07:14;;;;;;;50.87;33.33;;;7.90;74.40;;;;;;5083265;28;20159;-76
2023/04/09 08:09:40;;;;;;;48.90;33.03;;;8.00;73.80;;;;;;5084099;28;20054;-76
2023/04/09 08:12:06;;;;;;;50.90;33.33;;;8.00;73.60;;;;;;5095213;28;20044;-75
2023/04/09 08:14:32;;;;;;;53.00;34.53;;;8.00;73.20;;;;;;5068888;28;20092;-76
2023/04/09 08:16:58;;;;;;;50.07;33.77;;;8.10;73.30;;;;;;5074340;28;20043;-76
2023/04/09 08:19:24;;;;;;;50.97;35.17;;;8.10;72.80;;;;;;5102765;28;20043;-76
2023/04/09 08:21:51;;;;;;;52.37;35.40;;;8.10;72.70;;;;;;5105627;28;20090;-76
2023/04/09 08:24:17;;;;;;;53.37;35.87;;;8.10;72.40;;;;;;5085754;28;20055;-76
2023/04/09 08:26:43;;;;;;;54.03;34.90;;;8.10;72.60;;;;;;5070917;28;20550;-75
2023/04/09 08:29:11;;;;;;;51.97;35.33;;;8.10;72.60;;;;;;5100415;28;20130;-75
2023/04/09 08:31:37;;;;;;;53.47;35.67;;;8.10;72.60;;;;;;5084377;28;20223;-75
2023/04/09 08:34:03;;;;;;;56.03;35.93;;;8.10;72.60;;;;;;5098647;28;20517;-76
2023/04/09 08:36:29;;;;;;;53.87;35.43;;;8.10;72.60;;;;;;5073370;28;20052;-75
2023/04/09 08:38:55;;;;;;;54.70;36.57;;;8.10;72.40;;;;;;5104937;28;20055;-76
2023/04/09 08:41:27;;;;;;;54.27;34.70;;;8.10;72.30;;;;;;5091727;28;20042;-76
2023/04/09 08:43:54;;;;;;;54.20;37.20;;;8.10;72.60;;;;;;5091754;28;20058;-76
2023/04/09 08:46:20;;;;;;;54.40;35.27;;;8.10;72.40;;;;;;5081136;28;20485;-75
2023/04/09 08:48:48;;;;;;;52.43;35.27;;;8.10;72.30;;;;;;5104846;28;20061;-76
2023/04/09 08:51:15;;;;;;;54.87;37.37;;;8.10;72.50;;;;;;5091920;28;20126;-76
2023/04/09 08:53:59;;;;;;;53.27;36.00;;;8.20;72.20;;;;;;5108105;28;20048;-76
2023/04/09 08:56:25;;;;;;;53.03;35.63;;;8.20;72.20;;;;;;5097650;28;20477;-75
2023/04/09 08:58:52;;;;;;;54.60;35.40;;;8.20;72.30;;;;;;5106267;28;20056;-76
2023/04/09 09:01:26;;;;;;;57.20;36.50;;;8.20;72.40;;;;;;5110306;28;20458;-75
2023/04/09 09:04:02;;;;;;;56.63;37.00;;;8.30;72.50;;;;;;5090653;28;20544;-75
2023/04/09 09:06:37;;;;;;;60.00;36.73;;;8.40;72.50;;;;;;5057954;28;20415;-75
2023/04/09 09:09:07;;;;;;;51.00;34.23;;;8.40;72.30;;;;;;5089717;28;20055;-76
2023/04/09 09:11:40;;;;;;;50.50;35.53;;;8.50;72.40;;;;;;5091669;28;20047;-76
2023/04/09 09:14:11;;;;;;;54.13;34.43;;;8.50;72.10;;;;;;5108679;28;20048;-76
2023/04/09 09:16:43;;;;;;;52.72;35.47;;;8.60;72.30;;;;;;5095379;27;20482;-75
2023/04/09 09:19:29;;;;;;;52.10;34.57;;;8.60;72.40;;;;;;5102503;27;20048;-76
2023/04/09 09:21:56;;;;;;;48.90;32.57;;;8.60;72.30;;;;;;5112423;28;20097;-75
2023/04/09 09:24:22;;;;;;;50.00;34.43;;;8.80;71.90;;;;;;5092403;28;20055;-76
2023/04/09 09:26:48;;;;;;;51.67;34.90;;;8.80;71.80;;;;;;5061505;28;20047;-75
2023/04/09 09:29:14;;;;;;;48.87;34.07;;;8.90;71.80;;;;;;5073282;28;20409;-76
2023/04/09 09:31:48;;;;;;;52.40;33.53;;;8.90;71.80;;;;;;5109909;27;20051;-76
2023/04/09 09:34:17;;;;;;;52.93;35.93;;;9.00;71.60;;;;;;5095622;28;20077;-76
2023/04/09 09:36:44;;;;;;;47.90;31.37;;;9.00;71.90;;;;;;5096131;28;20036;-76
2023/04/09 09:39:11;;;;;;;52.13;35.30;;;9.10;71.60;;;;;;5093204;28;20122;-76
2023/04/09 09:41:41;;;;;;;49.43;32.70;;;9.20;71.60;;;;;;5112279;28;20066;-76
2023/04/09 09:44:08;;;;;;;48.53;33.77;;;9.20;71.60;;;;;;5075375;28;20105;-76
2023/04/09 09:46:35;;;;;;;51.10;32.53;;;9.40;71.30;;;;;;5063874;28;20480;-75
2023/04/09 09:49:01;;;;;;;51.83;33.37;;;9.40;71.20;;;;;;5086630;28;20096;-76
2023/04/09 09:51:30;;;;;;;48.57;33.40;;;9.40;71.50;;;;;;5111592;28;20116;-76
2023/04/09 09:53:56;;;;;;;44.30;32.53;;;9.40;71.20;;;;;;5093036;28;20465;-76
2023/04/09 09:56:34;;;;;;;46.30;32.47;;;9.50;71.00;;;;;;5098858;28;20505;-75
2023/04/09 09:59:06;;;;;;;47.97;33.13;;;9.60;70.90;;;;;;5083152;28;20063;-76
2023/04/09 10:01:34;;;;;;;47.60;33.10;;;9.70;71.00;;;;;;5111105;28;20478;-76
2023/04/09 10:04:02;;;;;;;51.70;34.23;;;9.80;70.80;;;;;;5072104;28;20130;-76
2023/04/09 10:06:29;;;;;;;48.13;32.77;;;9.80;70.30;;;;;;5098038;28;20975;-76
2023/04/09 10:09:03;;;;;;;48.37;33.33;;;9.80;70.20;;;;;;5087786;28;20086;-76
2023/04/09 10:11:34;;;;;;;49.03;33.73;;;9.90;70.10;;;;;;5109062;28;20068;-76
2023/04/09 10:14:00;;;;;;;44.35;31.83;;;9.90;70.20;;;;;;5089791;28;20105;-76
2023/04/09 10:16:27;;;;;;;46.70;32.47;;;10.00;70.00;;;;;;5096190;28;20059;-75
2023/04/09 10:18:57;;;;;;;49.70;32.50;;;10.00;69.90;;;;;;5081171;28;20051;-76
2023/04/09 10:21:26;;;;;;;43.70;32.33;;;10.00;70.00;;;;;;5110052;28;20047;-75
2023/04/09 10:23:52;;;;;;;46.30;31.97;;;10.10;70.10;;;;;;5108718;28;20138;-75
2023/04/09 10:26:19;;;;;;;46.83;31.53;;;10.30;70.30;;;;;;5077547;28;20044;-75
2023/04/09 10:28:45;;;;;;;46.73;33.00;;;10.40;69.90;;;;;;5081045;28;20513;-75
2023/04/09 10:31:10;;;;;;;44.87;31.60;;;10.60;69.30;;;;;;5092563;28;20043;-75
2023/04/09 10:33:37;;;;;;;44.50;32.00;;;10.70;69.50;;;;;;5094757;28;20048;-75
2023/04/09 10:36:11;;;;;;;43.57;30.47;;;10.80;68.90;;;;;;5067720;28;20046;-75
2023/04/09 10:38:37;;;;;;;47.70;33.20;;;10.90;68.90;;;;;;5086303;28;20079;-76
2023/04/09 10:41:28;;;;;;;45.43;31.30;;;10.90;68.70;;;;;;5111019;28;20052;-76
2023/04/09 10:43:53;;;;;;;40.10;29.70;;;10.90;67.90;;;;;;5109081;28;20406;-75
2023/04/09 10:46:33;;;;;;;44.47;29.47;;;11.10;68.50;;;;;;5099884;28;20044;-75
2023/04/09 10:49:10;;;;;;;46.57;31.43;;;11.30;68.40;;;;;;5108051;28;20130;-75
2023/04/09 10:51:37;;;;;;;42.73;30.63;;;11.50;68.00;;;;;;5092062;28;20052;-76
2023/04/09 10:54:05;;;;;;;40.00;28.57;;;11.50;68.20;;;;;;5109677;28;20062;-76
2023/04/09 10:56:31;;;;;;;43.87;30.20;;;11.50;67.70;;;;;;5093686;28;20609;-75
2023/04/09 10:58:57;;;;;;;40.17;29.02;;;11.60;67.70;;;;;;5097020;28;20067;-75
2023/04/09 11:01:23;;;;;;;37.63;28.25;;;11.70;67.90;;;;;;5098147;28;20401;-76
2023/04/09 11:04:07;;;;;;;37.40;28.45;;;12.10;68.00;;;;;;5095421;28;20051;-76
2023/04/09 11:06:35;;;;;;;35.85;27.02;;;12.80;66.20;;;;;;5052091;27;20062;-75
2023/04/09 11:09:03;;;;;;;38.75;29.02;;;12.80;66.60;;;;;;5064642;28;20051;-75
2023/04/09 11:11:29;;;;;;;35.38;27.30;;;12.70;66.10;;;;;;5081354;28;20299;-76
2023/04/09 11:14:00;;;;;;;36.47;27.65;;;13.10;66.40;;;;;;5088297;28;20127;-76
2023/04/09 11:16:29;;;;;;;34.47;27.17;;;13.30;65.80;;;;;;5096027;28;20527;-75
2023/04/09 11:18:56;;;;;;;36.78;27.65;;;13.50;65.30;;;;;;5080511;28;20051;-75
2023/04/09 11:21:26;;;;;;;40.22;28.80;;;13.30;65.00;;;;;;5105253;28;20154;-75
2023/04/09 11:23:52;;;;;;;37.72;27.80;;;13.60;65.30;;;;;;5080864;28;20075;-76
2023/04/09 11:26:35;;;;;;;32.88;25.60;;;14.20;65.70;;;;;;5076767;28;20071;-76
2023/04/09 11:29:07;;;;;;;37.88;27.63;;;15.00;63.70;;;;;;5107083;28;20439;-76
2023/04/09 11:31:32;;;;;;;35.10;26.05;;;15.80;63.20;;;;;;5108836;27;20054;-76
2023/04/09 11:33:58;;;;;;;31.85;25.90;;;16.00;62.80;;;;;;5091481;28;20413;-76
2023/04/09 11:36:26;;;;;;;32.58;26.77;;;15.70;62.60;;;;;;5097495;28;20608;-76
2023/04/09 11:38:53;;;;;;;32.58;25.13;;;15.50;62.90;;;;;;5088547;28;20126;-76
2023/04/09 11:41:36;;;;;;;33.28;25.65;;;15.50;62.60;;;;;;5104453;28;20392;-76
2023/04/09 11:44:03;;;;;;;34.00;25.50;;;15.50;61.50;;;;;;5102450;28;20127;-76
2023/04/09 11:46:31;;;;;;;30.65;24.02;;;15.10;62.40;;;;;;5080361;28;20482;-76
2023/04/09 11:48:58;;;;;;;32.22;25.20;;;14.80;62.20;;;;;;5095661;28;20052;-76
2023/04/09 11:51:25;;;;;;;32.75;25.10;;;14.50;62.60;;;;;;5078246;28;20031;-76
2023/04/09 11:53:52;;;;;;;36.10;25.92;;;14.50;62.80;;;;;;5077307;28;20482;-76
2023/04/09 11:56:17;;;;;;;34.45;26.38;;;14.60;62.90;;;;;;5050638;28;20085;-76
2023/04/09 11:58:47;;;;;;;34.35;24.75;;;14.50;62.80;;;;;;5099585;28;20047;-76
2023/04/09 12:01:14;;;;;;;33.33;24.83;;;14.40;62.90;;;;;;5109533;28;20051;-76
2023/04/09 12:03:40;;;;;;;35.05;25.50;;;14.50;62.60;;;;;;5077691;28;20081;-76
2023/04/09 12:06:08;;;;;;;31.08;25.17;;;14.50;62.60;;;;;;5086600;28;20103;-75
2023/04/09 12:08:35;;;;;;;36.90;26.02;;;14.50;62.50;;;;;;5063055;28;20064;-76
2023/04/09 12:11:09;;;;;;;34.25;25.98;;;14.70;62.50;;;;;;5089527;28;20044;-76
2023/04/09 12:13:35;;;;;;;32.42;25.02;;;14.60;62.50;;;;;;5090701;28;20631;-76
2023/04/09 12:16:02;;;;;;;32.83;24.88;;;14.60;62.70;;;;;;5108711;28;20055;-76
2023/04/09 12:18:28;;;;;;;32.88;24.30;;;14.60;62.50;;;;;;5100637;27;20059;-76
2023/04/09 12:20:54;;;;;;;32.95;24.80;;;14.40;62.20;;;;;;5071437;28;20056;-76
2023/04/09 12:23:19;;;;;;;30.13;22.90;;;14.50;62.60;;;;;;5069303;28;20048;-76
2023/04/09 12:25:46;;;;;;;31.25;24.33;;;14.80;62.30;;;;;;5061692;28;20048;-76
2023/04/09 12:28:16;;;;;;;32.33;23.73;;;15.30;62.30;;;;;;5061566;28;20063;-75
2023/04/09 12:30:43;;;;;;;31.20;24.60;;;15.70;61.60;;;;;;5109900;28;20084;-76
2023/04/09 12:33:09;;;;;;;32.50;24.77;;;15.80;61.50;;;;;;5105408;28;20059;-76
2023/04/09 12:35:36;;;;;;;31.98;23.38;;;15.60;61.00;;;;;;5074333;28;20036;-76